sensor_id;sensor_type;location;lat;lon;timestamp;P1;durP1;ratioP1;P2;durP2;ratioP2
40012;SDS011;37387;42.672;23.334;2022-11-23T00:01:59;20.7;;;11.6;;
40012;SDS011;37387;42.672;23.334;2022-11-23T00:02:59;20.7;;;11.5;;
40012;SDS011;37387;42.672;23.334;2022-11-23T00:04:00;21.8;;;11.9;;
40012;SDS011;37387;42.672;23.334;2022-11-23T00:04:59;21.8;;;10.9;;
40012;SDS011;37387;42.672;23.334;2022-11-23T00:06:00;17.5;;;10.3;;
40012;SDS011;37387;42.672;23.334;2022-11-23T00:06:59;17.5;;;10.9;;
40012;SDS011;37387;42.672;23.334;2022-11-23T00:07:59;17.8;;;10.8;;
40012;SDS011;37387;42.672;23.334;2022-11-23T00:08:59;17.1;;;11.2;;
40012;SDS011;37387;42.672;23.334;2022-11-23T00:09:58;17.5;;;11.3;;
40012;SDS011;37387;42.672;23.334;2022-11-23T00:10:58;17.5;;;11.7;;
40012;SDS011;37387;42.672;23.334;2022-11-23T00:12:58;20.3;;;11.5;;
40012;SDS011;37387;42.672;23.334;2022-11-23T00:13:58;18.8;;;11.4;;
40012;SDS011;37387;42.672;23.334;2022-11-23T00:14:59;20.5;;;11.9;;
40012;SDS011;37387;42.672;23.334;2022-11-23T00:15:58;20.5;;;10.9;;
40012;SDS011;37387;42.672;23.334;2022-11-23T00:16:58;18.3;;;10.7;;
40012;SDS011;37387;42.672;23.334;2022-11-23T00:17:58;18.3;;;11.6;;
40012;SDS011;37387;42.672;23.334;2022-11-23T00:18:58;17.7;;;10.7;;
40012;SDS011;37387;42.672;23.334;2022-11-23T00:19:58;17.7;;;10.8;;
40012;SDS011;37387;42.672;23.334;2022-11-23T00:20:59;19.3;;;11.5;;
40012;SDS011;37387;42.672;23.334;2022-11-23T00:21:58;19.3;;;10.3;;
40012;SDS011;37387;42.672;23.334;2022-11-23T00:22:58;16.5;;;10.6;;
40012;SDS011;37387;42.672;23.334;2022-11-23T00:23:58;17.7;;;10.3;;
40012;SDS011;37387;42.672;23.334;2022-11-23T00:26:00;17.6;;;10.5;;
40012;SDS011;37387;42.672;23.334;2022-11-23T00:26:57;19.1;;;11.3;;
40012;SDS011;37387;42.672;23.334;2022-11-23T00:28:57;19.5;;;10.6;;
40012;SDS011;37387;42.672;23.334;2022-11-23T00:30:57;16.8;;;10.2;;
40012;SDS011;37387;42.672;23.334;2022-11-23T00:31:57;16.3;;;9.8;;
40012;SDS011;37387;42.672;23.334;2022-11-23T00:32:57;16.4;;;10.0;;
40012;SDS011;37387;42.672;23.334;2022-11-23T00:33:57;16.0;;;10.1;;
40012;SDS011;37387;42.672;23.334;2022-11-23T00:34:57;15.7;;;9.8;;
40012;SDS011;37387;42.672;23.334;2022-11-23T00:35:57;15.7;;;10.2;;
40012;SDS011;37387;42.672;23.334;2022-11-23T00:36:57;17.0;;;10.0;;
40012;SDS011;37387;42.672;23.334;2022-11-23T00:37:57;15.9;;;10.2;;
40012;SDS011;37387;42.672;23.334;2022-11-23T00:38:56;15.5;;;9.7;;
40012;SDS011;37387;42.672;23.334;2022-11-23T00:39:56;16.9;;;10.5;;
40012;SDS011;37387;42.672;23.334;2022-11-23T00:40:57;16.9;;;10.6;;
40012;SDS011;37387;42.672;23.334;2022-11-23T00:41:56;16.6;;;10.8;;
40012;SDS011;37387;42.672;23.334;2022-11-23T00:42:56;17.1;;;10.6;;
40012;SDS011;37387;42.672;23.334;2022-11-23T00:43:56;16.6;;;10.4;;
40012;SDS011;37387;42.672;23.334;2022-11-23T00:44:56;15.1;;;10.5;;
40012;SDS011;37387;42.672;23.334;2022-11-23T00:46:01;18.7;;;11.0;;
40012;SDS011;37387;42.672;23.334;2022-11-23T00:47:56;21.5;;;11.4;;
40012;SDS011;37387;42.672;23.334;2022-11-23T00:48:56;17.0;;;10.6;;
40012;SDS011;37387;42.672;23.334;2022-11-23T00:49:56;17.0;;;10.3;;
40012;SDS011;37387;42.672;23.334;2022-11-23T00:50:56;17.1;;;11.0;;
40012;SDS011;37387;42.672;23.334;2022-11-23T00:51:56;18.2;;;10.9;;
40012;SDS011;37387;42.672;23.334;2022-11-23T00:52:56;16.9;;;10.4;;
40012;SDS011;37387;42.672;23.334;2022-11-23T00:53:56;19.2;;;11.9;;
40012;SDS011;37387;42.672;23.334;2022-11-23T00:54:57;20.3;;;11.0;;
40012;SDS011;37387;42.672;23.334;2022-11-23T00:55:56;20.0;;;11.4;;
40012;SDS011;37387;42.672;23.334;2022-11-23T00:56:55;18.6;;;11.5;;
40012;SDS011;37387;42.672;23.334;2022-11-23T00:57:56;19.6;;;11.9;;
40012;SDS011;37387;42.672;23.334;2022-11-23T00:58:56;19.6;;;12.0;;
40012;SDS011;37387;42.672;23.334;2022-11-23T00:59:55;22.3;;;11.8;;
40012;SDS011;37387;42.672;23.334;2022-11-23T01:00:59;20.1;;;11.9;;
40012;SDS011;37387;42.672;23.334;2022-11-23T01:02:55;24.3;;;12.0;;
40012;SDS011;37387;42.672;23.334;2022-11-23T01:03:56;20.0;;;11.7;;
40012;SDS011;37387;42.672;23.334;2022-11-23T01:04:55;17.8;;;11.5;;
40012;SDS011;37387;42.672;23.334;2022-11-23T01:05:55;17.8;;;12.0;;
40012;SDS011;37387;42.672;23.334;2022-11-23T01:06:55;19.6;;;11.8;;
40012;SDS011;37387;42.672;23.334;2022-11-23T01:07:55;19.6;;;11.9;;
40012;SDS011;37387;42.672;23.334;2022-11-23T01:08:56;19.6;;;12.4;;
40012;SDS011;37387;42.672;23.334;2022-11-23T01:09:55;19.0;;;11.6;;
40012;SDS011;37387;42.672;23.334;2022-11-23T01:10:57;19.0;;;12.1;;
40012;SDS011;37387;42.672;23.334;2022-11-23T01:11:54;18.6;;;10.8;;
40012;SDS011;37387;42.672;23.334;2022-11-23T01:12:54;21.5;;;13.0;;
40012;SDS011;37387;42.672;23.334;2022-11-23T01:13:54;21.5;;;12.1;;
40012;SDS011;37387;42.672;23.334;2022-11-23T01:14:54;21.1;;;12.5;;
40012;SDS011;37387;42.672;23.334;2022-11-23T01:15:54;19.0;;;12.3;;
40012;SDS011;37387;42.672;23.334;2022-11-23T01:16:56;20.7;;;12.6;;
40012;SDS011;37387;42.672;23.334;2022-11-23T01:17:54;21.8;;;12.3;;
40012;SDS011;37387;42.672;23.334;2022-11-23T01:18:54;20.2;;;11.4;;
40012;SDS011;37387;42.672;23.334;2022-11-23T01:19:54;21.0;;;12.5;;
40012;SDS011;37387;42.672;23.334;2022-11-23T01:20:54;21.9;;;12.7;;
40012;SDS011;37387;42.672;23.334;2022-11-23T01:21:54;22.2;;;12.6;;
40012;SDS011;37387;42.672;23.334;2022-11-23T01:22:54;22.2;;;12.5;;
40012;SDS011;37387;42.672;23.334;2022-11-23T01:23:54;22.2;;;12.0;;
40012;SDS011;37387;42.672;23.334;2022-11-23T01:24:54;22.5;;;13.1;;
40012;SDS011;37387;42.672;23.334;2022-11-23T01:25:55;21.2;;;12.8;;
40012;SDS011;37387;42.672;23.334;2022-11-23T01:26:54;24.0;;;13.3;;
40012;SDS011;37387;42.672;23.334;2022-11-23T01:27:53;23.7;;;13.2;;
40012;SDS011;37387;42.672;23.334;2022-11-23T01:28:54;19.4;;;12.5;;
40012;SDS011;37387;42.672;23.334;2022-11-23T01:29:53;19.4;;;12.8;;
40012;SDS011;37387;42.672;23.334;2022-11-23T01:30:53;19.7;;;11.9;;
40012;SDS011;37387;42.672;23.334;2022-11-23T01:31:53;25.1;;;13.4;;
40012;SDS011;37387;42.672;23.334;2022-11-23T01:32:53;25.1;;;12.6;;
40012;SDS011;37387;42.672;23.334;2022-11-23T01:33:53;23.6;;;11.5;;
40012;SDS011;37387;42.672;23.334;2022-11-23T01:35:53;17.9;;;12.5;;
40012;SDS011;37387;42.672;23.334;2022-11-23T01:37:53;18.6;;;11.6;;
40012;SDS011;37387;42.672;23.334;2022-11-23T01:38:53;19.8;;;11.1;;
40012;SDS011;37387;42.672;23.334;2022-11-23T01:39:53;22.6;;;11.7;;
40012;SDS011;37387;42.672;23.334;2022-11-23T01:41:52;19.4;;;11.9;;
40012;SDS011;37387;42.672;23.334;2022-11-23T01:42:53;19.4;;;12.8;;
40012;SDS011;37387;42.672;23.334;2022-11-23T01:43:53;19.4;;;11.6;;
40012;SDS011;37387;42.672;23.334;2022-11-23T01:45:54;19.6;;;12.3;;
40012;SDS011;37387;42.672;23.334;2022-11-23T01:46:52;20.4;;;12.8;;
40012;SDS011;37387;42.672;23.334;2022-11-23T01:47:52;22.4;;;13.0;;
40012;SDS011;37387;42.672;23.334;2022-11-23T01:48:53;22.4;;;12.8;;
40012;SDS011;37387;42.672;23.334;2022-11-23T01:49:52;22.6;;;12.7;;
40012;SDS011;37387;42.672;23.334;2022-11-23T01:50:52;21.0;;;12.6;;
40012;SDS011;37387;42.672;23.334;2022-11-23T01:51:52;21.0;;;12.9;;
40012;SDS011;37387;42.672;23.334;2022-11-23T01:52:51;21.1;;;13.7;;
40012;SDS011;37387;42.672;23.334;2022-11-23T01:53:53;23.5;;;13.3;;
40012;SDS011;37387;42.672;23.334;2022-11-23T01:54:52;24.3;;;13.8;;
40012;SDS011;37387;42.672;23.334;2022-11-23T01:55:51;24.3;;;13.2;;
40012;SDS011;37387;42.672;23.334;2022-11-23T01:56:52;22.1;;;13.7;;
40012;SDS011;37387;42.672;23.334;2022-11-23T01:57:51;22.1;;;13.4;;
40012;SDS011;37387;42.672;23.334;2022-11-23T01:58:52;22.3;;;13.5;;
40012;SDS011;37387;42.672;23.334;2022-11-23T01:59:51;23.7;;;13.8;;
40012;SDS011;37387;42.672;23.334;2022-11-23T02:00:51;23.7;;;13.6;;
40012;SDS011;37387;42.672;23.334;2022-11-23T02:01:51;22.4;;;13.7;;
40012;SDS011;37387;42.672;23.334;2022-11-23T02:02:52;22.7;;;14.1;;
40012;SDS011;37387;42.672;23.334;2022-11-23T02:03:51;22.4;;;13.5;;
40012;SDS011;37387;42.672;23.334;2022-11-23T02:04:51;26.2;;;14.3;;
40012;SDS011;37387;42.672;23.334;2022-11-23T02:05:52;22.5;;;14.0;;
40012;SDS011;37387;42.672;23.334;2022-11-23T02:06:51;24.3;;;14.2;;
40012;SDS011;37387;42.672;23.334;2022-11-23T02:07:51;24.3;;;13.8;;
40012;SDS011;37387;42.672;23.334;2022-11-23T02:08:51;24.9;;;14.5;;
40012;SDS011;37387;42.672;23.334;2022-11-23T02:09:51;24.9;;;13.7;;
40012;SDS011;37387;42.672;23.334;2022-11-23T02:10:50;25.2;;;15.1;;
40012;SDS011;37387;42.672;23.334;2022-11-23T02:11:52;26.3;;;14.7;;
40012;SDS011;37387;42.672;23.334;2022-11-23T02:12:51;26.3;;;14.2;;
40012;SDS011;37387;42.672;23.334;2022-11-23T02:13:50;24.2;;;14.8;;
40012;SDS011;37387;42.672;23.334;2022-11-23T02:15:50;25.1;;;14.3;;
40012;SDS011;37387;42.672;23.334;2022-11-23T02:16:50;25.1;;;13.6;;
40012;SDS011;37387;42.672;23.334;2022-11-23T02:17:50;25.1;;;14.5;;
40012;SDS011;37387;42.672;23.334;2022-11-23T02:18:50;25.1;;;15.4;;
40012;SDS011;37387;42.672;23.334;2022-11-23T02:19:52;26.1;;;14.3;;
40012;SDS011;37387;42.672;23.334;2022-11-23T02:20:50;22.2;;;13.8;;
40012;SDS011;37387;42.672;23.334;2022-11-23T02:21:50;25.5;;;14.1;;
40012;SDS011;37387;42.672;23.334;2022-11-23T02:22:53;25.5;;;14.4;;
40012;SDS011;37387;42.672;23.334;2022-11-23T02:23:52;23.7;;;14.0;;
40012;SDS011;37387;42.672;23.334;2022-11-23T02:24:51;24.4;;;13.6;;
40012;SDS011;37387;42.672;23.334;2022-11-23T02:25:57;27.5;;;15.6;;
40012;SDS011;37387;42.672;23.334;2022-11-23T02:26:49;27.5;;;14.1;;
40012;SDS011;37387;42.672;23.334;2022-11-23T02:27:49;28.3;;;15.0;;
40012;SDS011;37387;42.672;23.334;2022-11-23T02:28:51;23.7;;;15.2;;
40012;SDS011;37387;42.672;23.334;2022-11-23T02:29:49;23.7;;;14.3;;
40012;SDS011;37387;42.672;23.334;2022-11-23T02:30:51;22.6;;;13.2;;
40012;SDS011;37387;42.672;23.334;2022-11-23T02:31:49;22.6;;;13.9;;
40012;SDS011;37387;42.672;23.334;2022-11-23T02:32:49;25.5;;;14.3;;
40012;SDS011;37387;42.672;23.334;2022-11-23T02:33:49;23.1;;;13.6;;
40012;SDS011;37387;42.672;23.334;2022-11-23T02:34:49;24.6;;;14.4;;
40012;SDS011;37387;42.672;23.334;2022-11-23T02:35:50;24.6;;;14.1;;
40012;SDS011;37387;42.672;23.334;2022-11-23T02:36:50;24.4;;;13.9;;
40012;SDS011;37387;42.672;23.334;2022-11-23T02:37:49;26.2;;;15.5;;
40012;SDS011;37387;42.672;23.334;2022-11-23T02:38:49;25.2;;;14.9;;
40012;SDS011;37387;42.672;23.334;2022-11-23T02:39:50;23.3;;;14.2;;
40012;SDS011;37387;42.672;23.334;2022-11-23T02:40:48;25.1;;;14.7;;
40012;SDS011;37387;42.672;23.334;2022-11-23T02:41:49;25.3;;;14.6;;
40012;SDS011;37387;42.672;23.334;2022-11-23T02:42:48;22.5;;;13.4;;
40012;SDS011;37387;42.672;23.334;2022-11-23T02:43:48;25.3;;;14.1;;
40012;SDS011;37387;42.672;23.334;2022-11-23T02:44:50;24.7;;;13.6;;
40012;SDS011;37387;42.672;23.334;2022-11-23T02:45:49;22.5;;;14.0;;
40012;SDS011;37387;42.672;23.334;2022-11-23T02:46:48;24.1;;;15.0;;
40012;SDS011;37387;42.672;23.334;2022-11-23T02:47:48;27.0;;;14.9;;
40012;SDS011;37387;42.672;23.334;2022-11-23T02:48:48;27.8;;;15.4;;
40012;SDS011;37387;42.672;23.334;2022-11-23T02:49:48;27.8;;;14.0;;
40012;SDS011;37387;42.672;23.334;2022-11-23T02:50:48;25.5;;;14.4;;
40012;SDS011;37387;42.672;23.334;2022-11-23T02:51:48;26.0;;;14.7;;
40012;SDS011;37387;42.672;23.334;2022-11-23T02:53:48;27.7;;;15.8;;
40012;SDS011;37387;42.672;23.334;2022-11-23T02:54:47;27.0;;;15.9;;
40012;SDS011;37387;42.672;23.334;2022-11-23T02:55:47;26.2;;;15.4;;
40012;SDS011;37387;42.672;23.334;2022-11-23T02:56:47;27.4;;;16.1;;
40012;SDS011;37387;42.672;23.334;2022-11-23T02:57:47;24.9;;;15.1;;
40012;SDS011;37387;42.672;23.334;2022-11-23T02:58:47;27.0;;;15.9;;
40012;SDS011;37387;42.672;23.334;2022-11-23T02:59:47;26.2;;;14.5;;
40012;SDS011;37387;42.672;23.334;2022-11-23T03:00:47;22.1;;;13.4;;
40012;SDS011;37387;42.672;23.334;2022-11-23T03:01:47;23.6;;;11.6;;
40012;SDS011;37387;42.672;23.334;2022-11-23T03:02:47;20.3;;;11.9;;
40012;SDS011;37387;42.672;23.334;2022-11-23T03:03:47;22.7;;;13.2;;
40012;SDS011;37387;42.672;23.334;2022-11-23T03:04:47;22.7;;;13.3;;
40012;SDS011;37387;42.672;23.334;2022-11-23T03:05:47;24.5;;;13.4;;
40012;SDS011;37387;42.672;23.334;2022-11-23T03:06:47;24.9;;;14.7;;
40012;SDS011;37387;42.672;23.334;2022-11-23T03:07:47;25.7;;;14.6;;
40012;SDS011;37387;42.672;23.334;2022-11-23T03:09:46;25.9;;;14.8;;
40012;SDS011;37387;42.672;23.334;2022-11-23T03:10:46;25.8;;;14.6;;
40012;SDS011;37387;42.672;23.334;2022-11-23T03:11:46;25.6;;;13.9;;
40012;SDS011;37387;42.672;23.334;2022-11-23T03:12:46;23.1;;;14.1;;
40012;SDS011;37387;42.672;23.334;2022-11-23T03:13:47;17.2;;;11.5;;
40012;SDS011;37387;42.672;23.334;2022-11-23T03:14:46;17.2;;;12.8;;
40012;SDS011;37387;42.672;23.334;2022-11-23T03:15:46;20.4;;;12.5;;
40012;SDS011;37387;42.672;23.334;2022-11-23T03:16:46;20.4;;;11.8;;
40012;SDS011;37387;42.672;23.334;2022-11-23T03:17:46;19.9;;;12.7;;
40012;SDS011;37387;42.672;23.334;2022-11-23T03:18:46;21.4;;;12.4;;
40012;SDS011;37387;42.672;23.334;2022-11-23T03:19:47;18.6;;;11.7;;
40012;SDS011;37387;42.672;23.334;2022-11-23T03:21:46;19.4;;;12.2;;
40012;SDS011;37387;42.672;23.334;2022-11-23T03:22:45;21.1;;;11.6;;
40012;SDS011;37387;42.672;23.334;2022-11-23T03:23:45;18.9;;;29.8;;
40012;SDS011;37387;42.672;23.334;2022-11-23T03:24:45;48.4;;;25.2;;
40012;SDS011;37387;42.672;23.334;2022-11-23T03:25:53;31.4;;;18.4;;
40012;SDS011;37387;42.672;23.334;2022-11-23T03:26:45;31.4;;;13.5;;
40012;SDS011;37387;42.672;23.334;2022-11-23T03:27:45;18.5;;;10.0;;
40012;SDS011;37387;42.672;23.334;2022-11-23T03:28:45;18.5;;;9.3;;
40012;SDS011;37387;42.672;23.334;2022-11-23T03:29:45;15.2;;;9.7;;
40012;SDS011;37387;42.672;23.334;2022-11-23T03:30:45;15.2;;;9.2;;
40012;SDS011;37387;42.672;23.334;2022-11-23T03:31:46;15.2;;;9.7;;
40012;SDS011;37387;42.672;23.334;2022-11-23T03:32:46;16.7;;;10.3;;
40012;SDS011;37387;42.672;23.334;2022-11-23T03:33:45;15.8;;;10.9;;
40012;SDS011;37387;42.672;23.334;2022-11-23T03:34:45;15.8;;;10.1;;
40012;SDS011;37387;42.672;23.334;2022-11-23T03:35:45;14.8;;;10.4;;
40012;SDS011;37387;42.672;23.334;2022-11-23T03:36:45;16.2;;;10.8;;
40012;SDS011;37387;42.672;23.334;2022-11-23T03:37:44;15.4;;;9.7;;
40012;SDS011;37387;42.672;23.334;2022-11-23T03:38:44;15.4;;;10.2;;
40012;SDS011;37387;42.672;23.334;2022-11-23T03:39:44;16.7;;;10.6;;
40012;SDS011;37387;42.672;23.334;2022-11-23T03:40:44;15.2;;;11.0;;
40012;SDS011;37387;42.672;23.334;2022-11-23T03:41:45;14.8;;;9.8;;
40012;SDS011;37387;42.672;23.334;2022-11-23T03:43:44;13.5;;;9.3;;
40012;SDS011;37387;42.672;23.334;2022-11-23T03:44:44;15.5;;;9.9;;
40012;SDS011;37387;42.672;23.334;2022-11-23T03:45:44;16.6;;;10.0;;
40012;SDS011;37387;42.672;23.334;2022-11-23T03:46:44;16.6;;;10.2;;
40012;SDS011;37387;42.672;23.334;2022-11-23T03:47:44;15.1;;;9.5;;
40012;SDS011;37387;42.672;23.334;2022-11-23T03:48:44;14.2;;;9.0;;
40012;SDS011;37387;42.672;23.334;2022-11-23T03:49:44;13.8;;;9.2;;
40012;SDS011;37387;42.672;23.334;2022-11-23T03:50:44;15.9;;;10.3;;
40012;SDS011;37387;42.672;23.334;2022-11-23T03:51:44;15.9;;;9.3;;
40012;SDS011;37387;42.672;23.334;2022-11-23T03:52:43;13.9;;;9.7;;
40012;SDS011;37387;42.672;23.334;2022-11-23T03:53:43;16.7;;;11.2;;
40012;SDS011;37387;42.672;23.334;2022-11-23T03:54:43;16.7;;;10.6;;
40012;SDS011;37387;42.672;23.334;2022-11-23T03:55:44;17.0;;;10.1;;
40012;SDS011;37387;42.672;23.334;2022-11-23T03:57:43;15.5;;;9.8;;
40012;SDS011;37387;42.672;23.334;2022-11-23T03:58:43;16.3;;;11.2;;
40012;SDS011;37387;42.672;23.334;2022-11-23T03:59:43;18.4;;;11.0;;
40012;SDS011;37387;42.672;23.334;2022-11-23T04:00:43;18.4;;;11.3;;
40012;SDS011;37387;42.672;23.334;2022-11-23T04:01:43;18.4;;;10.9;;
40012;SDS011;37387;42.672;23.334;2022-11-23T04:02:43;17.1;;;10.6;;
40012;SDS011;37387;42.672;23.334;2022-11-23T04:03:43;17.7;;;10.9;;
40012;SDS011;37387;42.672;23.334;2022-11-23T04:04:43;17.7;;;11.6;;
40012;SDS011;37387;42.672;23.334;2022-11-23T04:05:43;19.2;;;11.4;;
40012;SDS011;37387;42.672;23.334;2022-11-23T04:06:43;21.2;;;12.1;;
40012;SDS011;37387;42.672;23.334;2022-11-23T04:07:43;19.9;;;11.8;;
40012;SDS011;37387;42.672;23.334;2022-11-23T04:08:42;18.4;;;12.4;;
40012;SDS011;37387;42.672;23.334;2022-11-23T04:09:42;19.6;;;11.9;;
40012;SDS011;37387;42.672;23.334;2022-11-23T04:10:42;20.6;;;12.5;;
40012;SDS011;37387;42.672;23.334;2022-11-23T04:11:42;20.6;;;11.4;;
40012;SDS011;37387;42.672;23.334;2022-11-23T04:12:44;19.6;;;12.4;;
40012;SDS011;37387;42.672;23.334;2022-11-23T04:13:42;19.6;;;13.0;;
40012;SDS011;37387;42.672;23.334;2022-11-23T04:14:42;20.9;;;13.5;;
40012;SDS011;37387;42.672;23.334;2022-11-23T04:15:42;24.8;;;14.6;;
40012;SDS011;37387;42.672;23.334;2022-11-23T04:16:42;32.7;;;18.0;;
40012;SDS011;37387;42.672;23.334;2022-11-23T04:17:42;32.7;;;21.7;;
40012;SDS011;37387;42.672;23.334;2022-11-23T04:18:42;31.8;;;17.9;;
40012;SDS011;37387;42.672;23.334;2022-11-23T04:19:42;31.8;;;13.7;;
40012;SDS011;37387;42.672;23.334;2022-11-23T04:20:42;22.3;;;13.8;;
40012;SDS011;37387;42.672;23.334;2022-11-23T04:21:42;22.5;;;13.9;;
40012;SDS011;37387;42.672;23.334;2022-11-23T04:22:42;22.5;;;13.7;;
40012;SDS011;37387;42.672;23.334;2022-11-23T04:23:41;21.5;;;13.5;;
40012;SDS011;37387;42.672;23.334;2022-11-23T04:24:41;21.5;;;14.0;;
40012;SDS011;37387;42.672;23.334;2022-11-23T04:25:41;23.4;;;13.4;;
40012;SDS011;37387;42.672;23.334;2022-11-23T04:26:41;21.2;;;14.1;;
40012;SDS011;37387;42.672;23.334;2022-11-23T04:27:41;23.5;;;13.3;;
40012;SDS011;37387;42.672;23.334;2022-11-23T04:28:41;23.7;;;14.6;;
40012;SDS011;37387;42.672;23.334;2022-11-23T04:29:41;23.3;;;14.4;;
40012;SDS011;37387;42.672;23.334;2022-11-23T04:30:41;25.8;;;14.3;;
40012;SDS011;37387;42.672;23.334;2022-11-23T04:31:41;25.8;;;14.0;;
40012;SDS011;37387;42.672;23.334;2022-11-23T04:32:42;23.2;;;13.5;;
40012;SDS011;37387;42.672;23.334;2022-11-23T04:33:41;21.1;;;13.8;;
40012;SDS011;37387;42.672;23.334;2022-11-23T04:34:41;26.5;;;15.1;;
40012;SDS011;37387;42.672;23.334;2022-11-23T04:35:41;24.6;;;14.8;;
40012;SDS011;37387;42.672;23.334;2022-11-23T04:36:41;24.7;;;14.3;;
40012;SDS011;37387;42.672;23.334;2022-11-23T04:37:41;25.2;;;14.9;;
40012;SDS011;37387;42.672;23.334;2022-11-23T04:38:41;25.2;;;14.5;;
40012;SDS011;37387;42.672;23.334;2022-11-23T04:39:40;22.1;;;13.5;;
40012;SDS011;37387;42.672;23.334;2022-11-23T04:40:40;22.1;;;14.9;;
40012;SDS011;37387;42.672;23.334;2022-11-23T04:41:40;25.7;;;13.6;;
40012;SDS011;37387;42.672;23.334;2022-11-23T04:42:40;21.2;;;14.4;;
40012;SDS011;37387;42.672;23.334;2022-11-23T04:43:41;20.5;;;13.1;;
40012;SDS011;37387;42.672;23.334;2022-11-23T04:44:40;23.9;;;14.3;;
40012;SDS011;37387;42.672;23.334;2022-11-23T04:45:40;21.8;;;14.0;;
40012;SDS011;37387;42.672;23.334;2022-11-23T04:46:40;24.5;;;14.1;;
40012;SDS011;37387;42.672;23.334;2022-11-23T04:47:40;24.5;;;13.9;;
40012;SDS011;37387;42.672;23.334;2022-11-23T04:48:40;25.2;;;15.6;;
40012;SDS011;37387;42.672;23.334;2022-11-23T04:49:40;25.2;;;15.7;;
40012;SDS011;37387;42.672;23.334;2022-11-23T04:50:40;26.9;;;15.4;;
40012;SDS011;37387;42.672;23.334;2022-11-23T04:51:40;26.8;;;16.1;;
40012;SDS011;37387;42.672;23.334;2022-11-23T04:52:40;24.8;;;14.9;;
40012;SDS011;37387;42.672;23.334;2022-11-23T04:53:40;27.2;;;15.8;;
40012;SDS011;37387;42.672;23.334;2022-11-23T04:54:40;25.9;;;15.2;;
40012;SDS011;37387;42.672;23.334;2022-11-23T04:55:39;25.9;;;16.6;;
40012;SDS011;37387;42.672;23.334;2022-11-23T04:56:39;25.9;;;16.8;;
40012;SDS011;37387;42.672;23.334;2022-11-23T04:57:39;26.2;;;15.9;;
40012;SDS011;37387;42.672;23.334;2022-11-23T04:58:39;26.8;;;16.0;;
40012;SDS011;37387;42.672;23.334;2022-11-23T04:59:39;28.4;;;17.0;;
40012;SDS011;37387;42.672;23.334;2022-11-23T05:00:39;27.1;;;16.6;;
40012;SDS011;37387;42.672;23.334;2022-11-23T05:01:39;30.1;;;17.3;;
40012;SDS011;37387;42.672;23.334;2022-11-23T05:02:39;33.7;;;19.4;;
40012;SDS011;37387;42.672;23.334;2022-11-23T05:03:39;33.7;;;19.1;;
40012;SDS011;37387;42.672;23.334;2022-11-23T05:04:39;31.0;;;18.3;;
40012;SDS011;37387;42.672;23.334;2022-11-23T05:05:41;30.4;;;17.4;;
40012;SDS011;37387;42.672;23.334;2022-11-23T05:06:39;30.4;;;17.3;;
40012;SDS011;37387;42.672;23.334;2022-11-23T05:07:39;32.3;;;18.1;;
40012;SDS011;37387;42.672;23.334;2022-11-23T05:08:39;30.6;;;18.4;;
40012;SDS011;37387;42.672;23.334;2022-11-23T05:09:38;30.6;;;18.8;;
40012;SDS011;37387;42.672;23.334;2022-11-23T05:10:38;29.6;;;17.8;;
40012;SDS011;37387;42.672;23.334;2022-11-23T05:11:38;27.5;;;18.5;;
40012;SDS011;37387;42.672;23.334;2022-11-23T05:12:38;30.3;;;17.9;;
40012;SDS011;37387;42.672;23.334;2022-11-23T05:13:38;28.3;;;18.4;;
40012;SDS011;37387;42.672;23.334;2022-11-23T05:14:38;31.4;;;18.2;;
40012;SDS011;37387;42.672;23.334;2022-11-23T05:15:38;31.4;;;17.8;;
40012;SDS011;37387;42.672;23.334;2022-11-23T05:16:38;29.2;;;18.1;;
40012;SDS011;37387;42.672;23.334;2022-11-23T05:17:39;32.9;;;18.5;;
40012;SDS011;37387;42.672;23.334;2022-11-23T05:18:38;30.4;;;19.1;;
40012;SDS011;37387;42.672;23.334;2022-11-23T05:19:38;32.8;;;18.8;;
40012;SDS011;37387;42.672;23.334;2022-11-23T05:20:38;33.4;;;19.5;;
40012;SDS011;37387;42.672;23.334;2022-11-23T05:22:38;35.5;;;20.2;;
40012;SDS011;37387;42.672;23.334;2022-11-23T05:23:38;35.2;;;20.5;;
40012;SDS011;37387;42.672;23.334;2022-11-23T05:24:37;35.2;;;20.4;;
40012;SDS011;37387;42.672;23.334;2022-11-23T05:25:37;34.7;;;19.5;;
40012;SDS011;37387;42.672;23.334;2022-11-23T05:26:37;34.7;;;18.7;;
40012;SDS011;37387;42.672;23.334;2022-11-23T05:27:37;32.3;;;19.0;;
40012;SDS011;37387;42.672;23.334;2022-11-23T05:28:37;30.7;;;19.3;;
40012;SDS011;37387;42.672;23.334;2022-11-23T05:29:37;30.7;;;19.2;;
40012;SDS011;37387;42.672;23.334;2022-11-23T05:30:37;34.2;;;19.8;;
40012;SDS011;37387;42.672;23.334;2022-11-23T05:31:37;33.1;;;19.6;;
40012;SDS011;37387;42.672;23.334;2022-11-23T05:32:37;36.0;;;20.9;;
40012;SDS011;37387;42.672;23.334;2022-11-23T05:33:37;32.9;;;20.3;;
40012;SDS011;37387;42.672;23.334;2022-11-23T05:34:37;32.9;;;20.0;;
40012;SDS011;37387;42.672;23.334;2022-11-23T05:35:37;34.7;;;21.0;;
40012;SDS011;37387;42.672;23.334;2022-11-23T05:36:38;34.3;;;20.7;;
40012;SDS011;37387;42.672;23.334;2022-11-23T05:37:37;39.3;;;21.5;;
40012;SDS011;37387;42.672;23.334;2022-11-23T05:38:37;34.7;;;20.3;;
40012;SDS011;37387;42.672;23.334;2022-11-23T05:39:36;43.2;;;21.5;;
40012;SDS011;37387;42.672;23.334;2022-11-23T05:40:36;43.2;;;21.1;;
40012;SDS011;37387;42.672;23.334;2022-11-23T05:41:36;35.6;;;21.0;;
40012;SDS011;37387;42.672;23.334;2022-11-23T05:42:38;33.2;;;19.8;;
40012;SDS011;37387;42.672;23.334;2022-11-23T05:43:36;34.8;;;19.3;;
40012;SDS011;37387;42.672;23.334;2022-11-23T05:44:36;33.6;;;19.2;;
40012;SDS011;37387;42.672;23.334;2022-11-23T05:45:36;35.2;;;20.2;;
40012;SDS011;37387;42.672;23.334;2022-11-23T05:46:36;39.8;;;21.9;;
40012;SDS011;37387;42.672;23.334;2022-11-23T05:47:36;33.9;;;20.6;;
40012;SDS011;37387;42.672;23.334;2022-11-23T05:48:36;36.7;;;21.7;;
40012;SDS011;37387;42.672;23.334;2022-11-23T05:49:36;37.6;;;22.3;;
40012;SDS011;37387;42.672;23.334;2022-11-23T05:50:36;36.8;;;21.4;;
40012;SDS011;37387;42.672;23.334;2022-11-23T05:51:36;38.6;;;21.6;;
40012;SDS011;37387;42.672;23.334;2022-11-23T05:52:36;39.2;;;22.0;;
40012;SDS011;37387;42.672;23.334;2022-11-23T05:53:36;38.4;;;22.5;;
40012;SDS011;37387;42.672;23.334;2022-11-23T05:54:35;36.0;;;21.2;;
40012;SDS011;37387;42.672;23.334;2022-11-23T05:55:35;37.5;;;22.6;;
40012;SDS011;37387;42.672;23.334;2022-11-23T05:56:35;37.5;;;22.5;;
40012;SDS011;37387;42.672;23.334;2022-11-23T05:58:35;36.4;;;22.1;;
40012;SDS011;37387;42.672;23.334;2022-11-23T05:59:35;36.4;;;23.4;;
40012;SDS011;37387;42.672;23.334;2022-11-23T06:00:35;41.0;;;22.3;;
40012;SDS011;37387;42.672;23.334;2022-11-23T06:01:35;39.2;;;22.8;;
40012;SDS011;37387;42.672;23.334;2022-11-23T06:02:35;39.2;;;22.4;;
40012;SDS011;37387;42.672;23.334;2022-11-23T06:03:35;37.6;;;23.1;;
40012;SDS011;37387;42.672;23.334;2022-11-23T06:04:35;37.8;;;22.4;;
40012;SDS011;37387;42.672;23.334;2022-11-23T06:05:35;37.8;;;22.8;;
40012;SDS011;37387;42.672;23.334;2022-11-23T06:06:35;41.4;;;23.0;;
40012;SDS011;37387;42.672;23.334;2022-11-23T06:07:36;37.1;;;22.4;;
40012;SDS011;37387;42.672;23.334;2022-11-23T06:08:35;38.7;;;22.6;;
40012;SDS011;37387;42.672;23.334;2022-11-23T06:09:34;38.7;;;23.0;;
40012;SDS011;37387;42.672;23.334;2022-11-23T06:10:34;36.1;;;21.7;;
40012;SDS011;37387;42.672;23.334;2022-11-23T06:11:34;36.1;;;21.1;;
40012;SDS011;37387;42.672;23.334;2022-11-23T06:12:34;33.7;;;21.7;;
40012;SDS011;37387;42.672;23.334;2022-11-23T06:13:36;38.1;;;22.2;;
40012;SDS011;37387;42.672;23.334;2022-11-23T06:14:34;36.3;;;22.0;;
40012;SDS011;37387;42.672;23.334;2022-11-23T06:16:35;32.7;;;20.6;;